createdAt,value
2023-04-11T00:00:24.220Z,14.43
2023-04-11T00:02:54.825Z,14.45
2023-04-11T00:05:22.672Z,14.26
2023-04-11T00:07:50.818Z,14.39
2023-04-11T00:10:18.802Z,14.36
2023-04-11T00:12:46.608Z,14.42
2023-04-11T00:15:16.178Z,14.36
2023-04-11T00:17:45.656Z,14.19
2023-04-11T00:20:14.769Z,14.26
2023-04-11T00:22:43.797Z,13.41
2023-04-11T00:25:11.465Z,14.42
2023-04-11T00:27:40.316Z,13.99
2023-04-11T00:30:08.904Z,14.43
2023-04-11T00:32:38.738Z,14.31
2023-04-11T00:35:09.767Z,14.38
2023-04-11T00:37:56.361Z,14.20
2023-04-11T00:40:24.134Z,14.45
2023-04-11T00:42:52.905Z,14.31
2023-04-11T00:45:20.723Z,14.49
2023-04-11T00:47:48.702Z,14.03
2023-04-11T00:50:17.883Z,14.50
2023-04-11T00:52:47.154Z,14.08
2023-04-11T00:55:15.243Z,13.18
2023-04-11T00:57:44.224Z,14.55
2023-04-11T01:00:13.589Z,14.53
2023-04-11T01:02:45.102Z,13.20
2023-04-11T01:05:13.198Z,14.61
2023-04-11T01:07:45.666Z,14.32
2023-04-11T01:10:13.383Z,14.64
2023-04-11T01:12:41.287Z,14.41
2023-04-11T01:15:09.961Z,14.66
2023-04-11T01:17:38.012Z,14.67
2023-04-11T01:20:07.871Z,14.66
2023-04-11T01:22:35.815Z,12.92
2023-04-11T01:25:05.084Z,14.16
2023-04-11T01:27:34.046Z,14.68
2023-04-11T01:30:01.906Z,14.71
2023-04-11T01:32:30.146Z,14.70
2023-04-11T01:34:58.295Z,14.45
2023-04-11T01:37:26.175Z,14.44
2023-04-11T01:39:53.868Z,14.65
2023-04-11T01:42:23.673Z,14.62
2023-04-11T01:44:51.956Z,12.33
2023-04-11T01:47:19.798Z,13.66
2023-04-11T01:49:47.470Z,14.10
2023-04-11T01:52:15.563Z,14.29
2023-04-11T01:54:43.230Z,14.66
2023-04-11T01:57:10.928Z,14.49
2023-04-11T01:59:40.171Z,14.68
2023-04-11T02:02:08.066Z,14.15
2023-04-11T02:04:37.064Z,14.73
2023-04-11T02:07:04.734Z,14.10
2023-04-11T02:09:32.750Z,14.71
2023-04-11T02:12:00.989Z,14.70
2023-04-11T02:14:29.860Z,14.47
2023-04-11T02:16:59.275Z,14.66
2023-04-11T02:19:27.637Z,14.68
2023-04-11T02:21:55.416Z,14.69
2023-04-11T02:24:23.238Z,14.48
2023-04-11T02:26:50.986Z,14.37
2023-04-11T02:29:19.048Z,14.28
2023-04-11T02:31:49.349Z,14.53
2023-04-11T02:34:18.668Z,14.76
2023-04-11T02:36:46.570Z,14.57
2023-04-11T02:39:14.934Z,14.53
2023-04-11T02:41:42.810Z,14.72
2023-04-11T02:44:12.132Z,14.27
2023-04-11T02:46:40.096Z,14.67
2023-04-11T02:49:07.961Z,14.66
2023-04-11T02:51:37.165Z,14.45
2023-04-11T02:54:05.344Z,13.83
2023-04-11T02:56:34.933Z,13.56
2023-04-11T02:59:02.653Z,14.61
2023-04-11T03:01:30.665Z,14.60
2023-04-11T03:03:58.792Z,14.56
2023-04-11T03:06:27.356Z,14.56
2023-04-11T03:08:57.124Z,14.27
2023-04-11T03:11:25.489Z,14.23
2023-04-11T03:13:53.320Z,12.18
2023-04-11T03:16:21.303Z,14.54
2023-04-11T03:18:49.003Z,14.36
2023-04-11T03:21:16.908Z,14.32
2023-04-11T03:23:44.576Z,13.93
2023-04-11T03:26:14.423Z,14.04
2023-04-11T03:28:42.428Z,14.49
2023-04-11T03:31:11.660Z,14.15
2023-04-11T03:33:39.486Z,14.46
2023-04-11T03:36:08.359Z,14.26
2023-04-11T03:38:36.175Z,13.69
2023-04-11T03:41:04.178Z,14.44
2023-04-11T03:43:33.676Z,14.23
2023-04-11T03:46:01.557Z,14.42
2023-04-11T03:48:29.922Z,13.97
2023-04-11T03:50:59.686Z,14.26
2023-04-11T03:53:27.447Z,14.17
2023-04-11T03:55:55.412Z,13.78
2023-04-11T03:58:23.232Z,14.21
2023-04-11T04:00:52.283Z,14.19
2023-04-11T04:03:22.576Z,14.00
2023-04-11T04:05:50.763Z,13.25
2023-04-11T04:08:22.673Z,14.16
2023-04-11T04:10:50.577Z,14.20
2023-04-11T04:13:21.468Z,14.18
2023-04-11T04:15:49.185Z,14.16
2023-04-11T04:18:18.704Z,13.60
2023-04-11T04:20:47.399Z,13.74
2023-04-11T04:23:17.958Z,13.28
2023-04-11T04:25:48.823Z,14.14
2023-04-11T04:28:20.610Z,13.61
2023-04-11T04:30:50.128Z,12.84
2023-04-11T04:33:19.663Z,12.13
2023-04-11T04:35:47.436Z,13.64
2023-04-11T04:38:18.255Z,13.98
2023-04-11T04:40:46.329Z,13.75
2023-04-11T04:43:18.486Z,13.49
2023-04-11T04:45:46.674Z,13.79
2023-04-11T04:48:17.401Z,13.79
2023-04-11T04:50:46.589Z,13.69
2023-04-11T04:53:14.338Z,13.75
2023-04-11T06:56:48.993Z,17.80
2023-04-11T06:59:19.969Z,16.85
2023-04-11T07:01:49.289Z,17.12
2023-04-11T07:04:21.614Z,16.93
2023-04-11T07:11:52.195Z,15.64
2023-04-11T07:26:05.759Z,16.70
2023-04-11T07:48:34.308Z,18.92
2023-04-11T07:52:02.806Z,19.17
2023-04-11T08:18:48.196Z,22.95
2023-04-11T08:21:20.254Z,22.35
2023-04-11T08:23:52.264Z,22.54
2023-04-11T08:33:30.133Z,22.37
2023-04-11T08:36:05.910Z,22.54
2023-04-11T08:38:35.304Z,23.24
2023-04-11T08:41:07.276Z,23.80
2023-04-11T08:43:36.086Z,23.86
2023-04-11T09:02:19.438Z,25.68
2023-04-11T09:04:49.293Z,25.98
2023-04-11T09:07:21.445Z,25.22
2023-04-11T09:09:49.379Z,24.43
2023-04-11T09:12:17.116Z,24.75
2023-04-11T09:14:45.102Z,25.98
2023-04-11T09:17:17.208Z,26.36
2023-04-11T09:19:49.225Z,25.37
2023-04-11T09:22:18.047Z,24.80
2023-04-11T09:24:46.937Z,25.38
2023-04-11T09:27:16.931Z,25.72
2023-04-11T09:29:46.845Z,25.11
2023-04-11T09:32:30.571Z,25.64
2023-04-11T09:35:18.207Z,26.36
2023-04-11T09:37:47.063Z,27.66
2023-04-11T09:40:16.641Z,29.39
2023-04-11T09:42:44.764Z,28.81
2023-04-11T09:45:21.658Z,29.21
2023-04-11T09:47:51.616Z,29.90
2023-04-11T09:50:24.066Z,29.98
2023-04-11T09:52:53.899Z,30.97
2023-04-11T09:55:23.075Z,30.54
2023-04-11T09:57:52.498Z,30.66
2023-04-11T10:00:22.280Z,30.97
2023-04-11T10:02:53.348Z,30.34
2023-04-11T11:26:44.445Z,37.12
2023-04-11T13:47:43.384Z,18.93
2023-04-11T14:17:27.144Z,21.43
2023-04-11T14:19:54.935Z,20.34
2023-04-11T14:22:22.760Z,19.34
2023-04-11T14:24:50.576Z,20.99
2023-04-11T14:27:18.491Z,20.73
2023-04-11T14:29:47.482Z,20.44
2023-04-11T14:32:15.608Z,19.74
2023-04-11T14:34:46.143Z,19.85
2023-04-11T14:37:14.281Z,20.58
2023-04-11T14:39:42.462Z,20.17
2023-04-11T14:42:10.256Z,21.00
2023-04-11T14:44:40.553Z,20.09
2023-04-11T14:47:08.496Z,20.22
2023-04-11T14:49:39.012Z,19.52
2023-04-11T14:52:08.351Z,20.39
2023-04-11T14:54:36.276Z,18.48
2023-04-11T14:57:10.453Z,20.44
2023-04-11T14:59:38.576Z,18.70
2023-04-11T15:02:07.693Z,20.14
2023-04-11T15:04:35.781Z,19.42
2023-04-11T15:07:04.778Z,20.00
2023-04-11T15:09:34.682Z,17.68
2023-04-11T15:12:02.924Z,20.19
2023-04-11T15:14:55.985Z,18.95
2023-04-11T15:17:23.964Z,19.11
2023-04-11T15:19:52.416Z,20.62
2023-04-11T15:22:20.254Z,18.57
2023-04-11T15:24:49.559Z,19.98
2023-04-11T15:27:17.377Z,18.56
2023-04-11T15:29:45.770Z,20.31
2023-04-11T15:32:13.624Z,18.57
2023-04-11T15:34:41.617Z,19.35
2023-04-11T15:37:11.631Z,17.94
2023-04-11T15:39:39.485Z,18.94
2023-04-11T15:42:08.874Z,19.01
2023-04-11T15:44:36.665Z,18.14
2023-04-11T15:47:04.581Z,18.72
2023-04-11T15:49:32.399Z,17.70
2023-04-11T15:52:00.192Z,19.09
2023-04-11T15:54:28.340Z,18.34
2023-04-11T15:56:57.362Z,17.86
2023-04-11T15:59:26.630Z,17.95
2023-04-11T16:01:54.537Z,17.40
2023-04-11T16:04:22.521Z,18.82
2023-04-11T16:06:51.051Z,19.12
2023-04-11T16:09:20.052Z,18.24
2023-04-11T16:11:47.949Z,18.69
2023-04-11T16:14:15.775Z,17.41
2023-04-11T16:16:47.381Z,19.19
2023-04-11T16:19:15.591Z,17.72
2023-04-11T16:21:43.757Z,18.79
2023-04-11T16:24:11.740Z,19.10
2023-04-11T16:26:39.638Z,18.53
2023-04-11T16:29:07.560Z,18.39
2023-04-11T16:31:36.483Z,18.49
2023-04-11T16:34:05.951Z,18.48
2023-04-11T16:36:34.321Z,18.21
2023-04-11T16:39:04.145Z,18.24
2023-04-11T16:41:36.228Z,18.18
2023-04-11T16:44:05.861Z,18.43
2023-04-11T16:46:44.869Z,19.04
2023-04-11T16:49:16.287Z,18.87
2023-04-11T16:51:44.408Z,18.25
2023-04-11T16:54:13.696Z,18.33
2023-04-11T16:56:41.669Z,16.28
2023-04-11T16:59:10.210Z,16.52
2023-04-11T17:01:38.456Z,18.72
2023-04-11T17:04:06.803Z,18.60
2023-04-11T17:06:36.962Z,17.06
2023-04-11T17:09:06.276Z,17.54
2023-04-11T17:11:37.380Z,17.58
2023-04-11T17:14:05.620Z,16.79
2023-04-11T17:16:33.512Z,18.20
2023-04-11T17:19:01.231Z,16.82
2023-04-11T17:21:33.451Z,16.08
2023-04-11T17:24:02.828Z,16.34
2023-04-11T17:26:30.756Z,17.32
2023-04-11T17:28:59.068Z,17.76
2023-04-11T17:31:29.580Z,17.65
2023-04-11T17:33:57.805Z,17.07
2023-04-11T17:36:26.171Z,15.74
2023-04-11T17:38:54.750Z,16.20
2023-04-11T17:41:24.158Z,14.68
2023-04-11T17:43:52.083Z,16.69
2023-04-11T17:46:20.481Z,16.55
2023-04-11T17:48:48.549Z,16.63
2023-04-11T17:51:18.935Z,16.91
2023-04-11T17:53:47.260Z,14.28
2023-04-11T17:56:15.882Z,15.51
2023-04-11T17:58:46.708Z,15.61
2023-04-11T18:01:18.249Z,17.25
2023-04-11T18:03:50.364Z,17.22
2023-04-11T18:06:18.503Z,15.18
2023-04-11T18:08:51.500Z,17.15
2023-04-11T18:11:20.914Z,16.46
2023-04-11T18:13:50.693Z,16.13
2023-04-11T18:16:18.795Z,15.59
2023-04-11T18:18:47.230Z,14.95
2023-04-11T18:21:16.044Z,15.63
2023-04-11T18:23:45.417Z,14.44
2023-04-11T18:26:13.707Z,15.60
2023-04-11T18:28:41.556Z,15.61
2023-04-11T18:31:11.092Z,14.60
2023-04-11T18:33:42.966Z,14.67
2023-04-11T18:36:12.372Z,15.53
2023-04-11T18:38:40.374Z,16.56
2023-04-11T18:41:08.686Z,15.87
2023-04-11T18:43:38.456Z,15.74
2023-04-11T18:46:07.519Z,14.45
2023-04-11T18:48:40.007Z,15.63
2023-04-11T18:51:11.752Z,14.46
2023-04-11T18:53:40.904Z,16.23
2023-04-11T18:56:09.269Z,14.42
2023-04-11T18:58:45.311Z,15.00
2023-04-11T19:01:17.273Z,15.38
2023-04-11T19:03:47.858Z,15.18
2023-04-11T19:06:16.904Z,14.66
2023-04-11T19:08:45.130Z,13.40
2023-04-11T19:11:13.213Z,14.54
2023-04-11T19:13:41.285Z,15.08
2023-04-11T19:16:09.320Z,15.66
2023-04-11T19:18:37.487Z,12.81
2023-04-11T19:21:07.895Z,14.89
2023-04-11T19:23:35.966Z,14.96
2023-04-11T19:26:04.151Z,15.10
2023-04-11T19:28:32.422Z,15.49
2023-04-11T19:31:00.579Z,14.11
2023-04-11T19:33:28.558Z,13.70
2023-04-11T19:35:57.574Z,15.34
2023-04-11T19:38:27.069Z,14.51
2023-04-11T19:40:55.799Z,14.55
2023-04-11T19:43:23.819Z,12.52
2023-04-11T19:45:52.122Z,13.74
2023-04-11T19:48:22.874Z,12.76
2023-04-11T19:50:50.980Z,14.16
2023-04-11T19:53:18.764Z,14.31
2023-04-11T19:55:53.453Z,12.96
2023-04-11T19:58:22.281Z,12.74
2023-04-11T20:00:51.150Z,13.37
2023-04-11T20:03:19.191Z,14.15
2023-04-11T20:05:47.660Z,12.61
2023-04-11T20:08:15.670Z,12.19
2023-04-11T20:10:43.521Z,14.64
2023-04-11T20:13:12.796Z,13.13
2023-04-11T20:15:40.895Z,12.31
2023-04-11T20:18:10.849Z,14.03
2023-04-11T20:20:38.713Z,13.19
2023-04-11T20:23:07.163Z,14.35
2023-04-11T20:25:36.047Z,14.38
2023-04-11T20:28:03.903Z,12.67
2023-04-11T20:30:33.289Z,12.49
2023-04-11T20:33:01.729Z,13.41
2023-04-11T20:35:29.861Z,13.61
2023-04-11T20:37:57.747Z,13.14
2023-04-11T20:40:25.851Z,12.68
2023-04-11T20:42:56.393Z,12.63
2023-04-11T20:45:27.802Z,13.79
2023-04-11T20:47:59.774Z,13.05
2023-04-11T20:50:33.452Z,12.53
2023-04-11T20:53:01.875Z,13.18
2023-04-11T20:55:30.524Z,11.93
2023-04-11T20:57:58.553Z,12.71
2023-04-11T21:00:26.701Z,12.07
2023-04-11T21:02:59.232Z,14.42
2023-04-11T21:05:27.520Z,13.59
2023-04-11T21:07:55.419Z,12.57
2023-04-11T21:10:23.445Z,12.81
2023-04-11T21:12:53.774Z,12.49
2023-04-11T21:15:22.051Z,14.29
2023-04-11T21:17:50.491Z,11.65
2023-04-11T21:20:20.792Z,13.85
2023-04-11T21:22:49.060Z,13.10
2023-04-11T21:25:17.185Z,14.52
2023-04-11T21:27:45.016Z,11.92
2023-04-11T21:30:13.471Z,14.17
2023-04-11T21:32:41.455Z,13.92
2023-04-11T21:35:10.483Z,12.60
2023-04-11T21:37:39.746Z,12.96
2023-04-11T21:40:08.772Z,13.82
2023-04-11T21:42:36.718Z,13.78
2023-04-11T21:45:04.979Z,12.14
2023-04-11T21:47:33.015Z,12.59
2023-04-11T21:50:00.959Z,11.90
2023-04-11T21:52:28.817Z,13.45
2023-04-11T21:54:58.082Z,14.01
2023-04-11T21:57:26.068Z,12.96
2023-04-11T21:59:54.009Z,13.50
2023-04-11T22:02:22.228Z,13.60
2023-04-11T22:05:04.857Z,14.86
2023-04-11T22:07:39.074Z,12.85
2023-04-11T22:10:12.276Z,13.47
2023-04-11T22:12:40.177Z,13.79
2023-04-11T22:15:11.089Z,13.56
2023-04-11T22:17:41.941Z,14.84
2023-04-11T22:20:11.209Z,12.68
2023-04-11T22:22:39.590Z,13.99
2023-04-11T22:25:10.412Z,14.87
2023-04-11T22:27:38.514Z,14.84
2023-04-11T22:30:08.810Z,14.85
2023-04-11T22:32:37.015Z,13.95
2023-04-11T22:35:05.864Z,14.14
2023-04-11T22:37:34.289Z,13.43
2023-04-11T22:40:02.396Z,14.14
2023-04-11T22:42:31.718Z,13.31
2023-04-11T22:44:59.699Z,13.19
2023-04-11T22:47:29.020Z,13.89
2023-04-11T22:49:57.852Z,14.69
2023-04-11T22:52:26.518Z,12.45
2023-04-11T22:54:56.382Z,14.03
2023-04-11T22:57:24.289Z,13.53
2023-04-11T22:59:53.649Z,12.44
2023-04-11T23:02:23.298Z,13.54
2023-04-11T23:04:51.384Z,13.57
2023-04-11T23:07:19.496Z,13.81
2023-04-11T23:09:47.366Z,11.92
2023-04-11T23:12:15.675Z,12.81
2023-04-11T23:14:43.523Z,12.16
2023-04-11T23:17:13.501Z,12.88
2023-04-11T23:19:41.426Z,13.24
2023-04-11T23:22:09.878Z,11.54
2023-04-11T23:24:37.843Z,12.42
2023-04-11T23:27:06.648Z,11.89
2023-04-11T23:29:34.557Z,13.00
2023-04-11T23:32:02.460Z,11.97
2023-04-11T23:34:31.972Z,12.27
2023-04-11T23:36:59.878Z,13.39
2023-04-11T23:39:27.741Z,13.57
2023-04-11T23:41:55.548Z,13.81
2023-04-11T23:44:23.413Z,13.02
2023-04-11T23:46:51.416Z,13.81
2023-04-11T23:49:19.462Z,13.49
2023-04-11T23:51:48.733Z,13.74
2023-04-11T23:54:16.645Z,13.11
2023-04-11T23:56:44.998Z,12.55
2023-04-11T23:59:12.932Z,13.08
